createdAt,value
2023-01-26T00:01:15.698Z,98095.72
2023-01-26T00:03:44.569Z,98093.13
2023-01-26T00:06:15.314Z,98093.19
2023-01-26T00:08:44.869Z,98095.78
2023-01-26T00:11:17.291Z,98092.25
2023-01-26T00:13:45.778Z,98091.38
2023-01-26T00:16:16.119Z,98090.50
2023-01-26T00:18:44.841Z,98087.13
2023-01-26T00:21:15.420Z,98089.72
2023-01-26T00:23:43.698Z,98089.75
2023-01-26T00:26:17.255Z,98091.44
2023-01-26T00:28:45.695Z,98093.22
2023-01-26T00:31:15.681Z,98098.44
2023-01-26T00:33:43.839Z,98094.06
2023-01-26T00:36:12.790Z,98091.44
2023-01-26T00:38:41.980Z,98095.78
2023-01-26T00:41:30.567Z,98092.25
2023-01-26T00:44:00.366Z,98093.94
2023-01-26T00:46:28.762Z,98095.59
2023-01-26T00:48:56.973Z,98087.88
2023-01-26T00:51:25.207Z,98091.38
2023-01-26T00:53:53.304Z,98081.88
2023-01-26T00:56:21.531Z,98078.38
2023-01-26T00:58:49.629Z,98073.16
2023-01-26T01:01:19.744Z,98076.66
2023-01-26T01:03:47.828Z,98084.53
2023-01-26T01:06:15.956Z,98075.03
2023-01-26T01:08:44.053Z,98078.44
2023-01-26T01:11:13.613Z,98065.63
2023-01-26T01:13:42.086Z,98072.47
2023-01-26T01:16:12.117Z,98078.53
2023-01-26T01:18:41.960Z,98069.97
2023-01-26T01:21:11.680Z,98062.97
2023-01-26T01:23:40.454Z,98068.19
2023-01-26T01:26:09.397Z,98069.94
2023-01-26T01:28:38.015Z,98066.41
2023-01-26T01:31:06.762Z,98071.56
2023-01-26T01:33:35.001Z,98073.22
2023-01-26T01:36:06.266Z,98067.13
2023-01-26T01:38:34.390Z,98069.75
2023-01-26T01:41:04.394Z,98068.00
2023-01-26T01:43:32.574Z,98056.66
2023-01-26T01:46:02.488Z,98057.53
2023-01-26T01:48:36.860Z,98066.16
2023-01-26T01:51:12.733Z,98053.09
2023-01-26T01:53:44.924Z,98052.94
2023-01-26T01:56:19.195Z,98059.00
2023-01-26T01:58:47.820Z,98053.81
2023-01-26T02:01:16.141Z,98040.72
2023-01-26T02:03:48.175Z,98039.84
2023-01-26T02:06:21.402Z,98044.25
2023-01-26T02:08:52.727Z,98040.84
2023-01-26T02:11:25.656Z,98035.53
2023-01-26T02:13:55.884Z,98036.50
2023-01-26T02:16:24.034Z,98036.50
2023-01-26T02:18:52.188Z,98026.03
2023-01-26T02:21:23.866Z,98026.00
2023-01-26T02:24:12.929Z,98017.31
2023-01-26T02:26:43.112Z,98005.97
2023-01-26T02:29:12.862Z,98011.19
2023-01-26T02:31:44.799Z,98005.09
2023-01-26T02:34:13.105Z,98005.19
2023-01-26T02:36:42.038Z,98013.78
2023-01-26T02:39:28.164Z,98005.19
2023-01-26T02:42:15.087Z,97994.72
2023-01-26T02:44:45.203Z,97988.69
2023-01-26T02:47:14.118Z,97980.91
2023-01-26T02:49:47.597Z,97983.56
2023-01-26T02:52:17.541Z,97981.81
2023-01-26T02:55:05.372Z,97975.75
2023-01-26T02:57:35.545Z,97978.34
2023-01-26T03:00:03.888Z,97955.81
2023-01-26T03:02:32.514Z,97958.44
2023-01-26T03:05:00.664Z,97968.78
2023-01-26T03:07:29.307Z,97961.00
2023-01-26T03:09:58.871Z,97961.00
2023-01-26T03:12:27.409Z,97939.25
2023-01-26T03:15:14.538Z,97951.38
2023-01-26T03:17:42.637Z,97946.16
2023-01-26T03:20:29.278Z,97941.84
2023-01-26T03:23:14.751Z,97939.31
2023-01-26T03:26:01.628Z,97938.44
2023-01-26T03:28:33.530Z,97937.44
2023-01-26T03:31:08.273Z,97934.00
2023-01-26T03:33:36.651Z,97925.31
2023-01-26T03:36:06.085Z,97921.81
2023-01-26T03:38:35.126Z,97921.69
2023-01-26T03:41:21.523Z,97917.31
2023-01-26T03:44:07.229Z,97919.16
2023-01-26T03:46:54.630Z,97914.81
2023-01-26T03:49:39.873Z,97915.00
2023-01-26T03:52:25.764Z,97904.69
2023-01-26T03:55:11.048Z,97899.38
2023-01-26T03:57:39.211Z,97901.09
2023-01-26T04:00:08.627Z,97901.00
2023-01-26T04:02:59.201Z,97895.81
2023-01-26T04:05:45.780Z,97897.44
2023-01-26T04:08:24.587Z,97901.91
2023-01-26T04:11:01.174Z,97895.84
2023-01-26T04:13:46.608Z,97893.22
2023-01-26T04:16:41.905Z,97887.09
2023-01-26T04:19:29.560Z,97874.91
2023-01-26T04:22:00.633Z,97881.81
2023-01-26T04:24:29.658Z,97873.19
2023-01-26T04:26:58.932Z,97878.41
2023-01-26T04:29:31.854Z,97871.50
2023-01-26T04:32:00.050Z,97875.69
2023-01-26T04:34:30.510Z,97874.84
2023-01-26T04:36:59.228Z,97871.34
2023-01-26T04:39:33.784Z,97860.06
2023-01-26T04:42:01.977Z,97866.13
2023-01-26T04:44:30.527Z,97866.97
2023-01-26T04:46:59.092Z,97857.56
2023-01-26T04:49:27.391Z,97861.06
2023-01-26T04:51:57.339Z,97865.38
2023-01-26T04:54:25.562Z,97861.84
2023-01-26T04:56:53.886Z,97854.06
2023-01-26T04:59:22.187Z,97861.81
2023-01-26T05:01:50.296Z,97860.19
2023-01-26T05:04:18.417Z,97863.56
2023-01-26T05:06:48.155Z,97859.16
2023-01-26T05:09:18.443Z,97861.91
2023-01-26T05:11:49.598Z,97858.47
2023-01-26T05:14:36.115Z,97860.44
2023-01-26T05:17:31.844Z,97851.66
2023-01-26T05:20:16.840Z,97856.88
2023-01-26T05:23:07.947Z,97847.44
2023-01-26T05:25:48.441Z,97858.75
2023-01-26T05:28:17.400Z,97850.97
2023-01-26T05:30:45.653Z,97858.88
2023-01-26T05:33:13.718Z,97850.97
2023-01-26T05:35:41.825Z,97853.66
2023-01-26T05:38:11.291Z,97854.63
2023-01-26T05:40:39.454Z,97858.78
2023-01-26T05:43:09.479Z,97858.16
2023-01-26T05:46:12.767Z,97860.66
2023-01-26T05:48:43.952Z,97853.78
2023-01-26T05:51:12.569Z,97862.56
2023-01-26T05:53:40.730Z,97855.56
2023-01-26T05:56:09.964Z,97856.31
2023-01-26T05:58:44.811Z,97846.72
2023-01-26T06:01:12.979Z,97847.75
2023-01-26T06:03:49.353Z,97849.41
2023-01-26T06:06:17.610Z,97853.78
2023-01-26T06:08:52.941Z,97858.09
2023-01-26T06:11:33.958Z,97840.81
2023-01-26T06:14:18.968Z,97841.75
2023-01-26T06:16:47.202Z,97858.13
2023-01-26T06:19:15.775Z,97851.19
2023-01-26T06:21:47.293Z,97847.81
2023-01-26T06:24:15.493Z,97853.81
2023-01-26T06:26:43.600Z,97846.03
2023-01-26T06:29:12.413Z,97841.69
2023-01-26T06:31:42.768Z,97838.16
2023-01-26T06:34:12.228Z,97839.03
2023-01-26T06:36:42.761Z,97844.25
2023-01-26T06:39:17.268Z,97849.47
2023-01-26T06:41:45.576Z,97840.75
2023-01-26T06:44:13.875Z,97839.91
2023-01-26T06:46:43.321Z,97845.09
2023-01-26T06:49:11.624Z,97842.47
2023-01-26T06:51:48.382Z,97843.28
2023-01-26T06:54:17.359Z,97837.31
2023-01-26T06:57:09.856Z,97842.53
2023-01-26T06:59:46.379Z,97833.78
2023-01-26T07:02:45.362Z,97843.25
2023-01-26T07:05:13.460Z,97838.00
2023-01-26T07:07:41.555Z,97833.81
2023-01-26T07:10:11.104Z,97833.81
2023-01-26T07:12:40.469Z,97832.16
2023-01-26T07:15:09.864Z,97833.06
2023-01-26T07:17:37.971Z,97819.03
2023-01-26T07:20:09.108Z,97825.03
2023-01-26T07:22:37.292Z,97829.28
2023-01-26T07:25:05.665Z,97824.84
2023-01-26T07:27:33.761Z,97819.63
2023-01-26T07:30:01.811Z,97817.91
2023-01-26T07:32:29.963Z,97824.72
2023-01-26T07:34:58.577Z,97821.31
2023-01-26T07:37:30.204Z,97816.22
2023-01-26T07:39:58.277Z,97827.38
2023-01-26T07:42:26.394Z,97823.91
2023-01-26T07:45:06.945Z,97823.91
2023-01-26T07:47:36.007Z,97829.88
2023-01-26T07:50:04.148Z,97821.22
2023-01-26T07:52:33.738Z,97827.13
2023-01-26T07:55:01.819Z,97824.63
2023-01-26T07:57:29.859Z,97834.97
2023-01-26T07:59:57.967Z,97833.16
2023-01-26T08:02:26.187Z,97834.03
2023-01-26T08:04:54.238Z,97825.41
2023-01-26T08:07:22.323Z,97834.75
2023-01-26T08:09:51.758Z,97832.06
2023-01-26T08:12:19.892Z,97843.47
2023-01-26T08:14:48.221Z,97839.03
2023-01-26T08:17:17.644Z,97843.59
2023-01-26T08:19:46.072Z,97840.91
2023-01-26T08:22:14.266Z,97840.75
2023-01-26T08:24:42.372Z,97842.66
2023-01-26T08:27:11.839Z,97839.97
2023-01-26T08:29:39.951Z,97836.59
2023-01-26T08:32:08.346Z,97846.19
2023-01-26T08:34:36.490Z,97848.81
2023-01-26T08:37:04.808Z,97846.94
2023-01-26T08:39:32.891Z,97849.47
2023-01-26T08:42:00.975Z,97851.16
2023-01-26T08:44:30.497Z,97848.53
2023-01-26T08:46:58.719Z,97844.94
2023-01-26T08:49:26.809Z,97844.91
2023-01-26T08:51:54.925Z,97841.53
2023-01-26T08:54:23.465Z,97845.84
2023-01-26T08:56:51.571Z,97845.03
2023-01-26T08:59:19.669Z,97843.25
2023-01-26T09:01:51.194Z,97848.41
2023-01-26T09:04:19.432Z,97851.72
2023-01-26T09:06:47.514Z,97842.09
2023-01-26T09:09:15.623Z,97840.28
2023-01-26T09:11:44.001Z,97839.34
2023-01-26T09:14:12.139Z,97848.13
2023-01-26T09:16:40.354Z,97839.59
2023-01-26T09:19:09.894Z,97848.41
2023-01-26T09:21:37.985Z,97849.25
2023-01-26T09:24:06.945Z,97851.91
2023-01-26T09:26:35.131Z,97862.47
2023-01-26T09:29:03.756Z,97851.34
2023-01-26T09:31:31.912Z,97863.22
2023-01-26T09:34:00.342Z,97859.81
2023-01-26T09:36:29.775Z,97859.75
2023-01-26T09:38:57.935Z,97851.91
2023-01-26T09:41:50.905Z,97860.63
2023-01-26T09:44:25.095Z,97860.44
2023-01-26T09:47:05.470Z,97850.00
2023-01-26T09:49:44.805Z,97845.59
2023-01-26T09:52:22.000Z,97848.13
2023-01-26T09:54:52.878Z,97843.03
2023-01-26T09:57:26.253Z,97846.50
2023-01-26T09:59:59.739Z,97835.19
2023-01-26T10:02:39.272Z,97841.97
2023-01-26T10:05:16.315Z,97832.34
2023-01-26T10:07:46.480Z,97827.13
2023-01-26T10:10:19.995Z,97823.56
2023-01-26T10:12:51.502Z,97813.09
2023-01-26T10:15:30.912Z,97814.81
2023-01-26T10:18:03.671Z,97814.00
2023-01-26T10:20:34.559Z,97812.50
2023-01-26T10:23:08.584Z,97802.84
2023-01-26T10:25:38.666Z,97798.34
2023-01-26T10:28:14.836Z,97799.06
2023-01-26T10:30:44.108Z,97797.41
2023-01-26T10:33:17.821Z,97783.28
2023-01-26T10:35:46.235Z,97776.31
2023-01-26T10:38:46.840Z,97779.63
2023-01-26T10:41:30.411Z,97786.69
2023-01-26T10:44:00.226Z,97777.81
2023-01-26T10:46:34.865Z,97775.88
2023-01-26T10:49:05.119Z,97771.63
2023-01-26T10:51:35.091Z,97769.72
2023-01-26T10:54:33.739Z,97758.44
2023-01-26T10:57:04.421Z,97750.53
2023-01-26T10:59:35.120Z,97753.88
2023-01-26T11:02:20.708Z,97742.72
2023-01-26T11:05:05.158Z,97741.59
2023-01-26T11:07:35.960Z,97746.84
2023-01-26T11:10:23.579Z,97743.97
2023-01-26T11:12:53.312Z,97725.97
2023-01-26T11:15:22.787Z,97731.72
2023-01-26T11:17:58.025Z,97726.78
2023-01-26T11:20:52.475Z,97721.59
2023-01-26T11:23:30.984Z,97718.25
2023-01-26T11:26:24.573Z,97715.69
2023-01-26T11:29:08.325Z,97714.53
2023-01-26T11:31:47.375Z,97715.88
2023-01-26T11:34:25.947Z,97714.22
2023-01-26T11:37:04.354Z,97707.13
2023-01-26T11:39:41.060Z,97702.41
2023-01-26T11:42:24.908Z,97694.75
2023-01-26T11:45:07.616Z,97697.28
2023-01-26T11:47:49.726Z,97686.72
2023-01-26T11:50:30.355Z,97681.84
2023-01-26T11:53:21.305Z,97682.72
2023-01-26T11:56:00.712Z,97676.41
2023-01-26T11:58:35.600Z,97660.91
2023-01-26T12:01:08.932Z,97649.72
2023-01-26T12:03:44.144Z,97653.13
2023-01-26T12:06:18.879Z,97655.03
2023-01-26T12:08:52.468Z,97648.72
2023-01-26T12:11:25.618Z,97647.91
2023-01-26T12:14:13.730Z,97651.56
2023-01-26T12:16:52.391Z,97644.56
2023-01-26T12:19:35.957Z,97642.66
2023-01-26T12:22:12.570Z,97641.72
2023-01-26T12:25:16.085Z,97638.91
2023-01-26T12:27:41.570Z,97631.78
2023-01-26T12:30:35.592Z,97633.75
2023-01-26T12:33:04.005Z,97620.66
2023-01-26T12:35:57.041Z,97620.22
2023-01-26T12:38:37.733Z,97618.38
2023-01-26T12:41:13.804Z,97605.22
2023-01-26T12:43:58.315Z,97617.50
2023-01-26T12:46:32.538Z,97615.75
2023-01-26T12:49:06.824Z,97611.31
2023-01-26T12:51:39.334Z,97609.13
2023-01-26T12:54:16.461Z,97605.75
2023-01-26T12:56:49.789Z,97604.03
2023-01-26T12:59:39.705Z,97607.81
2023-01-26T13:02:26.837Z,97597.16
2023-01-26T13:04:55.328Z,97593.75
2023-01-26T13:07:33.399Z,97599.16
2023-01-26T13:10:23.978Z,97600.09
2023-01-26T13:12:56.749Z,97597.16
2023-01-26T13:15:27.409Z,97600.97
2023-01-26T13:17:59.506Z,97591.63
2023-01-26T13:20:42.332Z,97592.34
2023-01-26T13:23:40.367Z,97593.22
2023-01-26T13:26:25.593Z,97596.59
2023-01-26T13:28:56.495Z,97600.94
2023-01-26T13:31:34.900Z,97592.94
2023-01-26T13:34:09.461Z,97592.72
2023-01-26T13:36:41.086Z,97587.50
2023-01-26T13:39:15.537Z,97590.94
2023-01-26T13:41:48.355Z,97589.63
2023-01-26T13:44:19.733Z,97580.88
2023-01-26T13:46:53.521Z,97589.44
2023-01-26T13:49:27.813Z,97590.16
2023-01-26T13:51:55.969Z,97589.47
2023-01-26T13:54:26.713Z,97592.13
2023-01-26T13:57:03.932Z,97583.63
2023-01-26T13:59:33.186Z,97596.44
2023-01-26T14:02:02.089Z,97589.47
2023-01-26T14:04:32.718Z,97588.78
2023-01-26T14:07:06.084Z,97587.25
2023-01-26T14:09:36.377Z,97585.28
2023-01-26T14:12:08.502Z,97583.56
2023-01-26T14:14:38.537Z,97590.31
2023-01-26T14:17:08.940Z,97592.13
2023-01-26T14:19:43.025Z,97597.28
2023-01-26T14:22:15.709Z,97591.16
2023-01-26T14:24:44.256Z,97598.25
2023-01-26T14:27:31.277Z,97593.94
2023-01-26T14:29:59.596Z,97595.38
2023-01-26T14:32:29.923Z,97593.00
2023-01-26T14:35:01.144Z,97602.56
2023-01-26T14:37:30.215Z,97599.16
2023-01-26T14:40:19.376Z,97599.97
2023-01-26T14:42:48.364Z,97598.47
2023-01-26T14:45:16.860Z,97607.34
2023-01-26T14:47:45.453Z,97602.31
2023-01-26T14:50:24.068Z,97607.59
2023-01-26T14:52:52.234Z,97598.53
2023-01-26T14:55:23.841Z,97601.06
2023-01-26T14:57:52.836Z,97609.78
2023-01-26T15:00:26.739Z,97609.88
2023-01-26T15:02:57.040Z,97611.66
2023-01-26T15:05:34.713Z,97608.22
2023-01-26T15:08:04.931Z,97606.44
2023-01-26T15:10:36.986Z,97604.72
2023-01-26T15:13:19.877Z,97608.22
2023-01-26T15:15:50.063Z,97609.25
2023-01-26T15:18:20.689Z,97606.78
2023-01-26T15:21:00.769Z,97599.75
2023-01-26T15:23:31.189Z,97605.09
2023-01-26T15:26:06.950Z,97606.13
2023-01-26T15:28:35.805Z,97611.41
2023-01-26T15:31:04.768Z,97611.44
2023-01-26T15:33:51.708Z,97617.72
2023-01-26T15:36:31.064Z,97611.78
2023-01-26T15:39:06.031Z,97618.66
2023-01-26T15:41:34.146Z,97610.09
2023-01-26T15:44:02.348Z,97626.63
2023-01-26T15:46:30.759Z,97616.97
2023-01-26T15:48:59.004Z,97617.06
2023-01-26T15:51:28.584Z,97627.53
2023-01-26T15:53:56.695Z,97615.44
2023-01-26T15:56:24.823Z,97614.56
2023-01-26T15:58:52.890Z,97625.00
2023-01-26T16:01:23.268Z,97617.03
2023-01-26T16:03:51.945Z,97617.19
2023-01-26T16:06:25.262Z,97625.00
2023-01-26T16:08:55.220Z,97620.56
2023-01-26T16:11:26.441Z,97619.78
2023-01-26T16:14:03.343Z,97617.19
2023-01-26T16:16:32.564Z,97625.94
2023-01-26T16:19:00.829Z,97624.41
2023-01-26T16:21:31.760Z,97631.34
2023-01-26T16:24:01.702Z,97627.88
2023-01-26T16:26:30.625Z,97628.78
2023-01-26T16:28:59.225Z,97631.47
2023-01-26T16:31:30.483Z,97633.22
2023-01-26T16:33:59.981Z,97623.66
2023-01-26T16:36:28.623Z,97623.66
2023-01-26T16:38:56.785Z,97627.09
2023-01-26T16:41:28.527Z,97628.75
2023-01-26T16:43:58.064Z,97628.00
2023-01-26T16:46:27.050Z,97618.44
2023-01-26T16:48:55.667Z,97626.34
2023-01-26T16:51:26.768Z,97627.31
2023-01-26T16:53:56.017Z,97630.72
2023-01-26T16:56:28.734Z,97619.50
2023-01-26T16:58:57.601Z,97615.22
2023-01-26T17:01:29.248Z,97616.00
2023-01-26T17:03:57.958Z,97607.59
2023-01-26T17:06:27.304Z,97619.53
2023-01-26T17:08:56.048Z,97620.22
2023-01-26T17:11:28.108Z,97617.84
2023-01-26T17:13:57.176Z,97619.56
2023-01-26T17:16:29.632Z,97618.72
2023-01-26T17:18:58.495Z,97625.63
2023-01-26T17:21:27.730Z,97627.47
2023-01-26T17:23:57.785Z,97622.31
2023-01-26T17:26:27.614Z,97609.41
2023-01-26T17:28:57.069Z,97621.59
2023-01-26T17:31:26.353Z,97614.75
2023-01-26T17:33:56.485Z,97629.31
2023-01-26T17:36:25.170Z,97621.53
2023-01-26T17:38:53.552Z,97619.78
2023-01-26T17:41:21.810Z,97616.31
2023-01-26T17:43:53.089Z,97613.63
2023-01-26T17:46:23.171Z,97619.88
2023-01-26T17:48:52.586Z,97619.03
2023-01-26T17:51:23.189Z,97614.72
2023-01-26T17:53:51.737Z,97631.19
2023-01-26T17:56:22.642Z,97624.19
2023-01-26T17:58:54.763Z,97624.13
2023-01-26T18:01:25.179Z,97621.66
2023-01-26T18:03:54.606Z,97625.97
2023-01-26T18:06:23.425Z,97625.97
2023-01-26T18:08:52.390Z,97624.25
2023-01-26T18:11:21.132Z,97629.56
2023-01-26T18:13:52.176Z,97621.81
2023-01-26T18:16:22.892Z,97620.88
2023-01-26T18:18:56.801Z,97627.88
2023-01-26T18:21:27.221Z,97616.66
2023-01-26T18:23:59.644Z,97622.75
2023-01-26T18:26:31.622Z,97624.56
2023-01-26T18:29:01.561Z,97620.31
2023-01-26T18:31:36.363Z,97622.91
2023-01-26T18:34:06.516Z,97621.13
2023-01-26T18:36:37.745Z,97615.03
2023-01-26T18:39:08.307Z,97622.88
2023-01-26T18:41:38.693Z,97626.41
2023-01-26T18:44:08.597Z,97634.16
2023-01-26T18:46:38.948Z,97623.78
2023-01-26T18:49:07.904Z,97622.03
2023-01-26T18:51:38.996Z,97625.50
2023-01-26T18:54:12.151Z,97623.78
2023-01-26T18:56:41.192Z,97624.78
2023-01-26T18:59:11.190Z,97622.13
2023-01-26T19:01:43.894Z,97614.34
2023-01-26T19:04:17.924Z,97609.06
2023-01-26T19:06:48.158Z,97614.34
2023-01-26T19:09:17.755Z,97610.03
2023-01-26T19:11:47.952Z,97611.72
2023-01-26T19:14:17.947Z,97610.84
2023-01-26T19:16:50.070Z,97615.19
2023-01-26T19:19:20.564Z,97618.66
2023-01-26T19:21:52.534Z,97609.84
2023-01-26T19:24:24.450Z,97608.28
2023-01-26T19:26:57.218Z,97603.19
2023-01-26T19:29:26.821Z,97604.97
2023-01-26T19:32:00.458Z,97607.38
2023-01-26T19:34:31.699Z,97605.69
2023-01-26T19:37:01.031Z,97612.56
2023-01-26T19:39:31.277Z,97609.16
2023-01-26T19:42:03.582Z,97610.22
2023-01-26T19:44:33.706Z,97609.47
2023-01-26T19:47:04.785Z,97593.78
2023-01-26T19:49:36.190Z,97599.06
2023-01-26T19:52:06.444Z,97604.22
2023-01-26T19:54:37.136Z,97594.47
2023-01-26T19:57:08.010Z,97599.72
2023-01-26T19:59:39.062Z,97609.34
2023-01-26T20:02:11.610Z,97595.63
2023-01-26T20:04:40.394Z,97581.88
2023-01-26T20:07:10.755Z,97592.13
2023-01-26T20:09:40.369Z,97594.66
2023-01-26T20:12:11.632Z,97593.88
2023-01-26T20:14:40.786Z,97605.97
2023-01-26T20:17:11.420Z,97598.16
2023-01-26T20:19:40.743Z,97598.22
2023-01-26T20:22:10.551Z,97601.69
2023-01-26T20:24:40.662Z,97585.28
2023-01-26T20:27:10.654Z,97593.88
2023-01-26T20:29:40.759Z,97599.94
2023-01-26T20:32:12.949Z,97594.75
2023-01-26T20:34:44.228Z,97591.22
2023-01-26T20:37:14.673Z,97591.16
2023-01-26T20:39:46.879Z,97596.31
2023-01-26T20:42:17.957Z,97596.44
2023-01-26T20:44:48.121Z,97592.22
2023-01-26T20:47:19.013Z,97599.09
2023-01-26T20:49:48.238Z,97595.47
2023-01-26T20:52:18.063Z,97596.41
2023-01-26T20:54:47.495Z,97602.56
2023-01-26T20:57:15.797Z,97599.88
2023-01-26T20:59:47.657Z,97599.00
2023-01-26T21:02:18.574Z,97595.63
2023-01-26T21:04:47.824Z,97592.25
2023-01-26T21:07:17.045Z,97589.63
2023-01-26T21:09:45.712Z,97594.66
2023-01-26T21:12:14.990Z,97588.69
2023-01-26T21:14:45.408Z,97591.94
2023-01-26T21:17:15.685Z,97592.78
2023-01-26T21:19:45.285Z,97587.72
2023-01-26T21:22:13.503Z,97583.47
2023-01-26T21:24:41.633Z,97589.47
2023-01-26T21:27:10.529Z,97591.16
2023-01-26T21:29:40.571Z,97586.75
2023-01-26T21:32:09.461Z,97592.91
2023-01-26T21:34:37.928Z,97589.41
2023-01-26T21:37:07.770Z,97583.41
2023-01-26T21:39:37.352Z,97582.56
2023-01-26T21:42:06.233Z,97578.25
2023-01-26T21:44:56.159Z,97587.78
2023-01-26T21:47:24.659Z,97587.03
2023-01-26T21:49:53.882Z,97588.81
2023-01-26T21:52:41.107Z,97580.09
2023-01-26T21:55:10.011Z,97579.22
2023-01-26T21:57:55.356Z,97577.47
2023-01-26T22:00:23.762Z,97580.22
2023-01-26T22:02:52.944Z,97577.63
2023-01-26T22:05:21.586Z,97579.28
2023-01-26T22:07:51.199Z,97583.63
2023-01-26T22:10:19.413Z,97580.13
2023-01-26T22:12:47.508Z,97572.25
2023-01-26T22:15:15.692Z,97571.38
2023-01-26T22:17:43.813Z,97576.56
2023-01-26T22:20:14.214Z,97574.00
2023-01-26T22:22:42.477Z,97569.63
2023-01-26T22:25:12.385Z,97584.28
2023-01-26T22:27:41.781Z,97581.69
2023-01-26T22:30:11.622Z,97573.13
2023-01-26T22:32:39.999Z,97572.16
2023-01-26T22:35:08.524Z,97571.34
2023-01-26T22:37:36.637Z,97573.94
2023-01-26T22:40:05.284Z,97579.19
2023-01-26T22:42:34.793Z,97575.00
2023-01-26T22:45:02.976Z,97575.00
2023-01-26T22:47:31.083Z,97568.78
2023-01-26T22:49:59.230Z,97578.38
2023-01-26T22:52:27.333Z,97571.47
2023-01-26T22:54:55.439Z,97558.31
2023-01-26T22:57:23.559Z,97553.97
2023-01-26T22:59:53.080Z,97560.97
2023-01-26T23:02:21.204Z,97571.53
2023-01-26T23:04:49.324Z,97554.13
2023-01-26T23:07:17.442Z,97560.97
2023-01-26T23:09:45.585Z,97555.97
2023-01-26T23:12:13.772Z,97556.72
2023-01-26T23:14:42.077Z,97558.41
2023-01-26T23:17:12.652Z,97559.25
2023-01-26T23:19:40.734Z,97561.94
2023-01-26T23:22:08.814Z,97560.91
2023-01-26T23:24:36.925Z,97556.63
2023-01-26T23:27:05.113Z,97557.72
2023-01-26T23:29:33.207Z,97554.13
2023-01-26T23:32:01.397Z,97559.34
2023-01-26T23:34:30.909Z,97550.50
2023-01-26T23:36:59.019Z,97551.44
2023-01-26T23:39:27.116Z,97550.53
2023-01-26T23:41:55.202Z,97550.59
2023-01-26T23:44:23.339Z,97540.31
2023-01-26T23:46:51.594Z,97540.31
2023-01-26T23:49:19.883Z,97544.66
2023-01-26T23:51:49.389Z,97549.03
2023-01-26T23:54:17.702Z,97536.75
2023-01-26T23:56:45.836Z,97536.75
2023-01-26T23:59:13.899Z,97541.25
